Airport View

Enter ICAO identifier to see the current METAR for that AWOS.

KFNL for example

KJDN 020548Z AUTO 03012KT 24/09 A3013

2 Aug 2014 06:31

Other Area AWOS: KGGW - KMLS - KOLF - KPO1

TAF KGGW 020520Z 0206/0306 02008KT P6SM FEW250 FM021800 VRB04KT P6SM SCT250 FM030300 10009KT P6SM SCT250